Time;durP1;ratioP1;P1;durP2;ratioP2;P2;SDS_P1;SDS_P2;PMS_P1;PMS_P2;Temp;Humidity;BMP_temperature;BMP_pressure;BME280_temperature;BME280_humidity;BME280_pressure;Samples;Min_cycle;Max_cycle;Signal;HPM_P1;HPM_P2
2024/01/11 00:03:13;;;;;;;21.20;7.95;;;0.00;99.90;;;;;;10056986;28;20502;-63
2024/01/11 00:08:04;;;;;;;17.13;8.50;;;0.00;99.90;;;;;;10076267;28;20021;-80
2024/01/11 00:12:55;;;;;;;22.02;7.97;;;0.10;99.90;;;;;;10063851;28;20027;-81
2024/01/11 00:17:45;;;;;;;17.10;7.28;;;0.00;99.90;;;;;;10073283;28;20128;-80
2024/01/11 00:22:36;;;;;;;18.88;7.45;;;0.00;99.90;;;;;;10063563;28;20045;-67
2024/01/11 00:27:27;;;;;;;20.42;7.88;;;-0.10;99.90;;;;;;10062703;28;20275;-63
2024/01/11 00:32:17;;;;;;;21.88;8.30;;;-0.10;99.90;;;;;;10066920;28;20032;-63
2024/01/11 00:37:08;;;;;;;21.20;8.70;;;-0.10;99.90;;;;;;10063843;28;20045;-68
2024/01/11 00:41:59;;;;;;;17.08;8.60;;;-0.20;99.90;;;;;;10064433;28;20495;-62
2024/01/11 00:46:49;;;;;;;18.80;8.52;;;-0.10;99.90;;;;;;10062063;28;20038;-67
2024/01/11 00:51:40;;;;;;;17.75;8.90;;;-0.20;99.90;;;;;;10063480;28;20024;-65
2024/01/11 00:56:31;;;;;;;15.07;7.78;;;-0.20;99.90;;;;;;10080811;28;20082;-71
2024/01/11 01:01:22;;;;;;;19.25;8.43;;;-0.30;99.90;;;;;;10064673;28;20076;-69
2024/01/11 01:06:12;;;;;;;16.92;7.70;;;-0.20;99.90;;;;;;10060823;28;20088;-65
2024/01/11 01:11:03;;;;;;;21.08;9.07;;;-0.20;99.90;;;;;;10062769;28;20403;-66
2024/01/11 01:15:54;;;;;;;18.88;9.27;;;-0.20;99.90;;;;;;10047064;28;20038;-67
2024/01/11 01:20:45;;;;;;;21.67;8.80;;;-0.20;99.90;;;;;;10060642;28;20057;-66
2024/01/11 01:25:35;;;;;;;20.58;8.98;;;-0.20;99.90;;;;;;10060790;28;20523;-67
2024/01/11 01:30:29;;;;;;;18.15;7.47;;;-0.20;99.90;;;;;;10060585;28;20034;-68
2024/01/11 01:35:20;;;;;;;21.40;8.90;;;-0.30;99.90;;;;;;10060348;28;20037;-62
2024/01/11 01:40:12;;;;;;;19.27;8.73;;;-0.30;99.90;;;;;;10060072;28;20051;-64
2024/01/11 01:45:03;;;;;;;16.52;7.35;;;-0.30;99.90;;;;;;10060036;28;20108;-63
2024/01/11 01:49:54;;;;;;;17.70;8.63;;;-0.40;99.90;;;;;;10059824;28;20091;-63
2024/01/11 01:54:47;;;;;;;17.35;8.00;;;-0.40;99.90;;;;;;10066527;28;20045;-61
2024/01/11 01:59:38;;;;;;;16.33;7.05;;;-0.40;99.90;;;;;;10059512;28;20479;-67
2024/01/11 02:04:29;;;;;;;15.38;7.30;;;-0.30;99.90;;;;;;10058698;28;20111;-63
2024/01/11 02:09:20;;;;;;;16.70;7.95;;;-0.40;99.90;;;;;;10058037;28;20538;-67
2024/01/11 02:14:11;;;;;;;17.45;7.88;;;-0.40;99.90;;;;;;10057076;28;20051;-74
2024/01/11 02:19:02;;;;;;;17.42;7.38;;;-0.40;99.90;;;;;;10057823;28;20041;-66
2024/01/11 02:24:19;;;;;;;18.42;7.72;;;-0.40;99.90;;;;;;10059329;28;20136;-66
2024/01/11 02:29:10;;;;;;;18.83;7.85;;;-0.40;99.90;;;;;;10062360;28;20041;-64
2024/01/11 02:34:00;;;;;;;14.30;7.68;;;-0.40;99.90;;;;;;10057772;28;20132;-64
2024/01/11 02:38:52;;;;;;;21.08;8.65;;;-0.40;99.90;;;;;;10061459;28;20499;-67
2024/01/11 02:43:49;;;;;;;22.67;8.10;;;-0.50;99.90;;;;;;10067189;28;20084;-68
2024/01/11 02:48:40;;;;;;;14.48;7.88;;;-0.40;99.90;;;;;;10052146;28;20053;-69
2024/01/11 02:53:34;;;;;;;16.38;9.25;;;-0.50;99.90;;;;;;10059906;28;20482;-64
2024/01/11 02:58:24;;;;;;;16.15;7.53;;;-0.40;99.90;;;;;;10057512;28;20061;-65
2024/01/11 03:03:15;;;;;;;17.60;7.07;;;-0.50;99.90;;;;;;10054654;28;20499;-65
2024/01/11 03:08:06;;;;;;;17.27;7.80;;;-0.50;99.90;;;;;;10057043;28;20037;-67
2024/01/11 03:12:57;;;;;;;17.15;8.38;;;-0.50;99.90;;;;;;10056582;28;20017;-68
2024/01/11 03:17:48;;;;;;;16.52;7.18;;;-0.30;99.90;;;;;;10054835;28;20792;-64
2024/01/11 03:22:46;;;;;;;14.90;7.40;;;-0.40;99.90;;;;;;10055668;28;20037;-68
2024/01/11 03:27:37;;;;;;;21.38;8.18;;;-0.40;99.90;;;;;;10056126;28;20026;-68
2024/01/11 03:32:27;;;;;;;21.33;8.75;;;-0.40;99.90;;;;;;10054978;28;20613;-71
2024/01/11 03:37:18;;;;;;;22.27;7.85;;;-0.50;99.90;;;;;;10055386;28;20391;-64
2024/01/11 03:42:09;;;;;;;18.38;7.97;;;-0.60;99.90;;;;;;10054114;28;20037;-68
2024/01/11 03:46:59;;;;;;;18.30;8.07;;;-0.50;99.90;;;;;;10062513;28;20497;-75
2024/01/11 03:51:50;;;;;;;17.38;8.80;;;-0.50;99.90;;;;;;10055997;28;20052;-77
2024/01/11 03:56:41;;;;;;;18.95;7.85;;;-0.60;99.90;;;;;;10067949;28;20117;-78
2024/01/11 04:01:32;;;;;;;19.42;7.82;;;-0.60;99.90;;;;;;10055355;28;20116;-72
2024/01/11 04:06:24;;;;;;;18.23;8.15;;;-0.60;99.90;;;;;;10054504;28;20022;-72
2024/01/11 04:11:14;;;;;;;15.57;8.02;;;-0.60;99.90;;;;;;10055283;28;20499;-74
2024/01/11 04:16:06;;;;;;;20.88;8.00;;;-0.60;99.90;;;;;;10054989;28;20037;-73
2024/01/11 04:20:57;;;;;;;20.40;8.77;;;-0.60;99.90;;;;;;10055291;28;20518;-69
2024/01/11 04:25:47;;;;;;;19.48;7.88;;;-0.70;99.90;;;;;;10055432;28;20021;-75
2024/01/11 04:30:38;;;;;;;20.67;8.15;;;-0.70;99.90;;;;;;10059969;28;20033;-78
2024/01/11 04:35:28;;;;;;;22.65;8.82;;;-0.70;99.90;;;;;;10055165;28;20045;-72
2024/01/11 04:40:19;;;;;;;20.40;8.15;;;-0.70;99.90;;;;;;10055165;28;20038;-77
2024/01/11 04:45:10;;;;;;;18.95;7.75;;;-0.70;99.90;;;;;;10054652;28;20037;-78
2024/01/11 04:50:00;;;;;;;15.48;7.57;;;-0.70;99.90;;;;;;10053417;28;20159;-71
2024/01/11 04:54:51;;;;;;;23.73;8.88;;;-0.70;99.90;;;;;;10068630;28;20103;-74
2024/01/11 04:59:42;;;;;;;18.45;7.93;;;-0.70;99.90;;;;;;10060543;28;20404;-65
2024/01/11 05:04:32;;;;;;;21.85;8.98;;;-0.70;99.90;;;;;;10060932;28;20450;-67
2024/01/11 05:09:23;;;;;;;17.42;8.07;;;-0.70;99.90;;;;;;10061249;28;20030;-61
2024/01/11 05:14:13;;;;;;;15.95;8.13;;;-0.70;99.90;;;;;;10060761;28;20194;-61
2024/01/11 05:19:04;;;;;;;23.75;9.07;;;-0.80;99.90;;;;;;10060784;28;20043;-62
2024/01/11 05:23:55;;;;;;;19.13;7.75;;;-0.70;99.90;;;;;;10060042;28;20057;-69
2024/01/11 05:28:45;;;;;;;20.27;7.85;;;-0.70;99.90;;;;;;10060338;28;20079;-70
2024/01/11 05:33:36;;;;;;;15.38;7.57;;;-0.80;99.90;;;;;;10059936;28;20033;-67
2024/01/11 05:38:27;;;;;;;17.73;7.55;;;-0.80;99.90;;;;;;10060522;28;20360;-62
2024/01/11 05:43:17;;;;;;;14.38;8.20;;;-0.80;99.90;;;;;;10059292;28;20033;-62
2024/01/11 05:48:10;;;;;;;15.80;7.22;;;-0.80;99.90;;;;;;10058104;28;20556;-62
2024/01/11 05:53:01;;;;;;;20.48;9.00;;;-0.70;99.90;;;;;;10068042;28;20442;-61
2024/01/11 05:57:52;;;;;;;16.00;7.88;;;-0.80;99.90;;;;;;10066413;28;20041;-76
2024/01/11 06:02:42;;;;;;;17.15;8.45;;;-0.90;99.90;;;;;;10059123;28;20060;-63
2024/01/11 06:07:33;;;;;;;16.33;7.72;;;-1.00;99.90;;;;;;10059557;28;20030;-62
2024/01/11 06:12:24;;;;;;;15.82;7.68;;;-0.90;99.90;;;;;;10058518;28;20025;-63
2024/01/11 06:17:14;;;;;;;19.92;8.02;;;-0.90;99.90;;;;;;10057751;28;20036;-64
2024/01/11 06:22:05;;;;;;;17.60;8.57;;;-0.90;99.90;;;;;;10057730;28;20099;-62
2024/01/11 06:26:56;;;;;;;20.25;8.32;;;-0.80;99.90;;;;;;10058163;28;20577;-62
2024/01/11 06:31:46;;;;;;;19.17;8.25;;;-0.90;99.90;;;;;;10058808;28;20406;-72
2024/01/11 06:36:37;;;;;;;19.08;8.10;;;-1.00;99.90;;;;;;10057807;28;20045;-69
2024/01/11 06:41:28;;;;;;;19.90;8.50;;;-1.00;99.90;;;;;;10057125;28;20026;-74
2024/01/11 06:46:21;;;;;;;19.35;9.00;;;-1.10;99.90;;;;;;10056919;28;20086;-71
2024/01/11 06:51:20;;;;;;;19.70;8.02;;;-1.10;99.90;;;;;;10056608;28;20309;-76
2024/01/11 06:56:19;;;;;;;18.95;8.30;;;-1.10;99.90;;;;;;10063770;28;20041;-72
2024/01/11 07:01:10;;;;;;;18.45;7.47;;;-1.10;99.90;;;;;;10056926;28;20017;-74
2024/01/11 07:06:02;;;;;;;16.67;8.32;;;-1.00;99.90;;;;;;10056465;28;20034;-74
2024/01/11 07:10:53;;;;;;;21.33;8.35;;;-1.10;99.90;;;;;;10057222;28;20506;-73
2024/01/11 07:15:43;;;;;;;19.90;9.23;;;-1.10;99.90;;;;;;10057039;28;20045;-71
2024/01/11 07:20:34;;;;;;;14.00;7.63;;;-1.10;99.90;;;;;;10059178;28;20050;-65
2024/01/11 07:25:25;;;;;;;16.52;8.02;;;-1.10;99.90;;;;;;10055866;28;20361;-68
2024/01/11 07:30:16;;;;;;;16.63;7.88;;;-1.00;99.90;;;;;;10055850;28;20036;-70
2024/01/11 07:35:07;;;;;;;23.42;8.27;;;-1.10;99.90;;;;;;10050862;28;20049;-71
2024/01/11 07:39:57;;;;;;;18.13;9.20;;;-1.10;99.90;;;;;;10043211;28;20033;-71
2024/01/11 07:44:48;;;;;;;21.15;8.65;;;-1.10;99.90;;;;;;10050022;28;20037;-71
2024/01/11 07:49:39;;;;;;;16.27;8.27;;;-1.10;99.90;;;;;;10055638;28;20030;-70
2024/01/11 07:54:31;;;;;;;20.50;8.10;;;-1.00;99.90;;;;;;10051112;28;20501;-70
2024/01/11 07:59:21;;;;;;;20.23;8.57;;;-1.00;99.90;;;;;;10056148;28;20075;-73
2024/01/11 08:04:12;;;;;;;17.25;8.13;;;-1.00;99.90;;;;;;10055164;28;20030;-75
2024/01/11 08:09:04;;;;;;;16.88;8.52;;;-1.00;99.90;;;;;;10055913;28;20025;-72
2024/01/11 08:13:55;;;;;;;19.20;8.50;;;-1.10;99.90;;;;;;10054613;28;20438;-74
2024/01/11 08:18:45;;;;;;;18.38;9.00;;;-1.10;99.90;;;;;;10054690;28;20068;-67
2024/01/11 08:23:44;;;;;;;21.00;8.75;;;-1.10;99.90;;;;;;10054636;28;20395;-69
2024/01/11 08:28:35;;;;;;;21.00;9.82;;;-1.10;99.90;;;;;;10061526;28;20033;-69
2024/01/11 08:33:26;;;;;;;18.52;9.23;;;-1.10;99.90;;;;;;10063480;28;20079;-69
2024/01/11 08:38:16;;;;;;;17.65;8.88;;;-1.00;99.90;;;;;;10065257;28;20030;-70
2024/01/11 08:43:07;;;;;;;19.83;9.43;;;-0.90;99.90;;;;;;10063879;28;20025;-65
2024/01/11 08:47:58;;;;;;;16.23;8.43;;;-1.00;99.90;;;;;;10062501;28;20055;-67
2024/01/11 08:52:48;;;;;;;20.55;8.82;;;-0.90;99.90;;;;;;10066877;28;20025;-65
2024/01/11 08:57:39;;;;;;;19.15;8.15;;;-1.00;99.90;;;;;;10062194;28;20048;-63
2024/01/11 09:02:30;;;;;;;21.52;8.50;;;-1.00;99.90;;;;;;10061308;28;20036;-64
2024/01/11 09:07:20;;;;;;;21.63;8.90;;;-0.90;99.90;;;;;;10059946;28;20045;-64
2024/01/11 09:12:11;;;;;;;24.17;9.23;;;-0.90;99.90;;;;;;10059315;28;20033;-68
2024/01/11 09:17:02;;;;;;;14.80;8.63;;;-0.90;99.90;;;;;;10060132;28;20041;-66
2024/01/11 09:21:53;;;;;;;17.33;9.25;;;-0.90;99.90;;;;;;10062628;28;20073;-66
2024/01/11 09:26:44;;;;;;;31.08;10.35;;;-0.80;99.90;;;;;;10059931;28;20063;-67
2024/01/11 09:31:35;;;;;;;23.30;9.40;;;-0.80;99.90;;;;;;10059309;28;20033;-72
2024/01/11 09:36:26;;;;;;;20.60;9.57;;;-0.90;99.90;;;;;;10058448;28;20037;-72
2024/01/11 09:41:17;;;;;;;19.80;8.70;;;-0.80;99.90;;;;;;10075022;28;20549;-79
2024/01/11 09:46:09;;;;;;;19.67;9.45;;;-0.80;99.90;;;;;;10067725;28;20029;-77
2024/01/11 09:51:04;;;;;;;26.27;10.35;;;-0.70;99.90;;;;;;10060484;28;20116;-79
2024/01/11 09:55:56;;;;;;;25.95;10.23;;;-0.70;99.90;;;;;;10061088;28;20064;-75
2024/01/11 10:00:49;;;;;;;22.33;9.90;;;-0.80;99.90;;;;;;10057791;28;20038;-73
2024/01/11 10:05:41;;;;;;;21.15;9.27;;;-0.70;99.90;;;;;;10046340;28;20491;-70
2024/01/11 10:10:32;;;;;;;20.10;9.27;;;-0.70;99.90;;;;;;10059476;28;20033;-80
2024/01/11 10:15:24;;;;;;;27.80;10.70;;;-0.70;99.90;;;;;;10056559;28;20046;-70
2024/01/11 10:20:16;;;;;;;19.80;9.75;;;-0.70;99.90;;;;;;10057367;28;20400;-66
2024/01/11 10:25:12;;;;;;;22.45;10.70;;;-0.60;99.90;;;;;;10058375;28;20128;-69
2024/01/11 10:30:03;;;;;;;17.80;10.00;;;-0.60;99.90;;;;;;10057855;28;20090;-71
2024/01/11 10:34:54;;;;;;;26.13;9.80;;;-0.50;99.90;;;;;;10057877;28;20511;-68
2024/01/11 10:39:46;;;;;;;26.35;10.15;;;-0.50;99.90;;;;;;10056551;28;20025;-64
2024/01/11 10:44:44;;;;;;;20.58;10.00;;;-0.30;99.90;;;;;;10057028;28;20180;-69
2024/01/11 10:49:39;;;;;;;19.35;8.90;;;-0.30;99.90;;;;;;10055422;28;20029;-63
2024/01/11 10:54:31;;;;;;;25.80;11.07;;;-0.30;99.90;;;;;;10060350;28;20112;-61
2024/01/11 10:59:25;;;;;;;23.38;9.57;;;-0.30;99.90;;;;;;10056594;28;20116;-63
2024/01/11 11:04:19;;;;;;;25.55;9.65;;;-0.30;99.90;;;;;;10053636;28;20022;-62
2024/01/11 11:09:11;;;;;;;21.70;10.18;;;-0.20;99.90;;;;;;10055514;28;20033;-69
2024/01/11 11:14:04;;;;;;;20.73;9.05;;;-0.20;99.90;;;;;;10054577;28;20029;-65
2024/01/11 11:18:56;;;;;;;22.02;10.13;;;-0.20;99.90;;;;;;10055498;28;20033;-69
2024/01/11 11:23:47;;;;;;;24.35;10.60;;;-0.10;99.90;;;;;;10056941;28;20838;-67
2024/01/11 11:28:37;;;;;;;25.08;9.20;;;-0.10;99.90;;;;;;10056573;28;20145;-67
2024/01/11 11:33:30;;;;;;;21.63;10.60;;;0.00;99.90;;;;;;10056871;28;20098;-70
2024/01/11 11:38:26;;;;;;;22.80;10.50;;;0.00;99.90;;;;;;10056788;28;20045;-65
2024/01/11 11:43:17;;;;;;;22.67;10.40;;;0.10;99.90;;;;;;10056506;28;20029;-64
2024/01/11 11:48:30;;;;;;;23.00;9.90;;;0.10;99.90;;;;;;10049140;28;20037;-71
2024/01/11 11:53:20;;;;;;;24.00;9.60;;;0.20;99.90;;;;;;10061267;28;20037;-65
2024/01/11 11:58:14;;;;;;;29.42;10.73;;;0.10;99.90;;;;;;10056380;28;20092;-62
2024/01/11 12:03:06;;;;;;;20.75;10.48;;;0.20;99.90;;;;;;10069253;28;20018;-62
2024/01/11 12:07:57;;;;;;;20.02;10.38;;;0.30;99.90;;;;;;10063302;28;20026;-70
2024/01/11 12:12:48;;;;;;;25.02;10.70;;;0.30;99.90;;;;;;10063800;28;20029;-67
2024/01/11 12:17:42;;;;;;;22.00;9.43;;;0.30;99.90;;;;;;10063161;28;20140;-63
2024/01/11 12:22:33;;;;;;;21.17;9.93;;;0.30;99.90;;;;;;10074422;28;20580;-67
2024/01/11 12:27:23;;;;;;;21.85;10.80;;;0.40;99.90;;;;;;10080865;28;20060;-65
2024/01/11 12:32:16;;;;;;;19.48;9.52;;;0.50;99.90;;;;;;10068687;28;20044;-65
2024/01/11 12:37:07;;;;;;;23.35;10.15;;;0.50;99.90;;;;;;10069696;28;20076;-63
2024/01/11 12:41:57;;;;;;;22.27;10.23;;;0.50;99.90;;;;;;10080304;28;20049;-65
2024/01/11 12:46:52;;;;;;;21.55;10.48;;;0.60;99.90;;;;;;10079837;28;20076;-72
2024/01/11 12:51:42;;;;;;;27.90;10.80;;;0.50;99.90;;;;;;10062135;28;20084;-66
2024/01/11 12:56:33;;;;;;;26.20;11.52;;;0.50;99.90;;;;;;10059202;28;20088;-73
2024/01/11 13:01:24;;;;;;;25.60;11.00;;;0.70;99.90;;;;;;10061605;28;20033;-66
2024/01/11 13:06:16;;;;;;;22.25;9.88;;;0.70;99.90;;;;;;10060238;28;20446;-68
2024/01/11 13:11:08;;;;;;;24.88;9.52;;;0.70;99.90;;;;;;10071400;28;20490;-67
2024/01/11 13:15:59;;;;;;;19.40;9.90;;;0.70;99.90;;;;;;10076691;28;20044;-63
2024/01/11 13:20:50;;;;;;;24.55;10.02;;;0.80;99.90;;;;;;10078121;28;20037;-67
2024/01/11 13:25:42;;;;;;;25.30;11.90;;;0.80;99.90;;;;;;10076578;28;20072;-65
2024/01/11 13:30:32;;;;;;;22.35;10.70;;;0.80;99.90;;;;;;10084654;28;20033;-67
2024/01/11 13:35:23;;;;;;;26.92;11.02;;;0.80;99.90;;;;;;10078567;28;20045;-70
2024/01/11 13:40:14;;;;;;;21.35;9.27;;;0.80;99.90;;;;;;10077828;28;20149;-63
2024/01/11 13:45:08;;;;;;;20.08;11.02;;;0.90;99.90;;;;;;10077199;28;20139;-68
2024/01/11 13:49:59;;;;;;;18.77;9.82;;;0.90;99.90;;;;;;10080337;28;20043;-61
2024/01/11 13:54:49;;;;;;;22.10;9.23;;;0.90;99.90;;;;;;10076124;28;20040;-64
2024/01/11 13:59:40;;;;;;;21.42;9.48;;;1.00;99.90;;;;;;10078346;28;20021;-64
2024/01/11 14:04:31;;;;;;;23.95;10.02;;;1.00;99.90;;;;;;10077921;28;20142;-63
2024/01/11 14:09:22;;;;;;;23.88;10.57;;;1.10;99.90;;;;;;10071899;28;20025;-63
2024/01/11 14:14:12;;;;;;;19.90;10.57;;;1.00;99.90;;;;;;10079018;28;20041;-69
2024/01/11 14:19:03;;;;;;;22.23;9.13;;;1.00;99.90;;;;;;10073183;28;20041;-64
2024/01/11 14:23:54;;;;;;;24.98;10.02;;;1.00;99.90;;;;;;10075071;28;20396;-64
2024/01/11 14:28:45;;;;;;;26.52;9.82;;;1.00;99.90;;;;;;10074524;28;20033;-71
2024/01/11 14:33:36;;;;;;;25.73;11.07;;;1.10;99.90;;;;;;10077324;28;20039;-73
2024/01/11 14:38:27;;;;;;;25.48;10.38;;;1.10;99.90;;;;;;10068133;28;20522;-63
2024/01/11 14:43:19;;;;;;;29.55;11.23;;;1.10;99.90;;;;;;10066144;28;20104;-64
2024/01/11 14:48:11;;;;;;;24.75;10.15;;;1.20;99.90;;;;;;10075140;28;20458;-64
2024/01/11 14:53:03;;;;;;;29.40;10.38;;;1.20;99.90;;;;;;10070755;28;20033;-64
2024/01/11 14:57:54;;;;;;;20.45;9.85;;;1.20;99.90;;;;;;10071801;28;20622;-66
2024/01/11 15:02:46;;;;;;;21.33;10.68;;;1.20;99.90;;;;;;10071815;28;20021;-72
2024/01/11 15:07:37;;;;;;;26.90;11.13;;;1.20;99.90;;;;;;10060125;28;20044;-69
2024/01/11 15:12:27;;;;;;;25.40;11.52;;;1.20;99.90;;;;;;10056457;28;20411;-64
2024/01/11 15:17:18;;;;;;;27.95;11.27;;;1.20;99.90;;;;;;10057289;28;20112;-78
2024/01/11 15:22:12;;;;;;;26.65;11.27;;;1.20;99.90;;;;;;10048569;28;20048;-62
2024/01/11 15:27:02;;;;;;;25.65;10.88;;;1.20;99.90;;;;;;10057053;28;20033;-71
2024/01/11 15:31:54;;;;;;;22.20;10.52;;;1.20;99.90;;;;;;10055756;28;20025;-73
2024/01/11 15:36:44;;;;;;;23.88;10.15;;;1.20;99.90;;;;;;10055546;28;20152;-78
2024/01/11 15:41:35;;;;;;;22.13;9.35;;;1.10;99.90;;;;;;10056342;28;20029;-73
2024/01/11 15:46:26;;;;;;;20.80;9.20;;;1.10;99.90;;;;;;10055933;28;20029;-80
2024/01/11 15:51:16;;;;;;;26.63;10.25;;;1.10;99.90;;;;;;10055465;28;20028;-84
2024/01/11 15:56:07;;;;;;;20.58;11.00;;;1.10;99.90;;;;;;10056968;28;20041;-66
2024/01/11 16:00:57;;;;;;;25.50;10.75;;;1.10;99.90;;;;;;10081227;28;20032;-69
2024/01/11 16:05:48;;;;;;;16.65;8.23;;;1.10;99.90;;;;;;10054799;28;20118;-70
2024/01/11 16:10:39;;;;;;;24.65;9.88;;;1.00;99.90;;;;;;10055129;28;20028;-63
2024/01/11 16:15:29;;;;;;;27.63;11.27;;;1.00;99.90;;;;;;10054479;28;20045;-68
2024/01/11 16:20:20;;;;;;;24.42;9.63;;;1.00;99.90;;;;;;10054469;28;20124;-64
2024/01/11 16:25:11;;;;;;;25.42;10.70;;;1.00;99.90;;;;;;10054091;28;20187;-65
2024/01/11 16:30:02;;;;;;;21.67;9.77;;;1.00;99.90;;;;;;10054894;28;20032;-69
2024/01/11 16:34:52;;;;;;;23.17;8.98;;;1.00;99.90;;;;;;10055332;28;20133;-66
2024/01/11 16:39:43;;;;;;;22.10;8.45;;;1.00;99.90;;;;;;10054473;28;20017;-65
2024/01/11 16:44:34;;;;;;;20.65;8.77;;;1.00;99.90;;;;;;10053963;28;20108;-66
2024/01/11 16:49:24;;;;;;;24.30;9.57;;;0.90;99.90;;;;;;10061119;28;20508;-71
2024/01/11 16:54:15;;;;;;;25.80;10.57;;;0.90;99.90;;;;;;10071833;28;20033;-73
2024/01/11 16:59:06;;;;;;;23.90;10.70;;;1.00;99.90;;;;;;10061168;28;20037;-65
2024/01/11 17:03:56;;;;;;;23.13;9.27;;;1.00;99.90;;;;;;10060741;28;20479;-63
2024/01/11 17:08:48;;;;;;;21.67;9.57;;;1.00;99.90;;;;;;10067435;28;20064;-72
2024/01/11 17:13:39;;;;;;;22.98;9.63;;;1.00;99.90;;;;;;10060580;28;20074;-69
2024/01/11 17:18:29;;;;;;;19.83;9.30;;;1.00;99.90;;;;;;10058005;28;20499;-69
2024/01/11 17:23:20;;;;;;;24.42;10.20;;;1.00;99.90;;;;;;10059126;28;20049;-68
2024/01/11 17:28:10;;;;;;;22.60;10.25;;;1.00;99.90;;;;;;10068009;28;20120;-66
2024/01/11 17:33:01;;;;;;;21.77;10.30;;;1.00;99.90;;;;;;10059330;28;20037;-69
2024/01/11 17:37:52;;;;;;;19.40;8.98;;;1.00;99.90;;;;;;10059783;28;20045;-71
2024/01/11 17:42:43;;;;;;;16.23;9.00;;;1.00;99.90;;;;;;10053091;28;20029;-78
2024/01/11 17:47:33;;;;;;;24.00;9.85;;;1.00;99.90;;;;;;10059379;28;20448;-71
2024/01/11 17:52:24;;;;;;;22.90;8.90;;;1.00;99.90;;;;;;10058326;28;20578;-69
2024/01/11 17:57:15;;;;;;;22.58;9.18;;;1.00;99.90;;;;;;10064087;28;20080;-76
2024/01/11 18:02:06;;;;;;;27.55;9.55;;;0.90;99.90;;;;;;10058766;28;20048;-64
2024/01/11 18:06:57;;;;;;;22.30;10.45;;;1.00;99.90;;;;;;10058909;28;20643;-75
2024/01/11 18:11:48;;;;;;;23.60;10.68;;;1.00;99.90;;;;;;10058925;28;20034;-69
2024/01/11 18:16:39;;;;;;;22.98;9.95;;;1.00;99.90;;;;;;10058598;28;20041;-71
2024/01/11 18:21:29;;;;;;;23.98;10.68;;;1.10;99.90;;;;;;10056790;28;20051;-73
2024/01/11 18:26:20;;;;;;;21.83;9.73;;;0.90;99.90;;;;;;10062901;28;20034;-70
2024/01/11 18:31:15;;;;;;;19.27;8.05;;;0.90;99.90;;;;;;10057938;28;20033;-66
2024/01/11 18:36:07;;;;;;;20.55;10.10;;;0.90;99.90;;;;;;10058055;28;20048;-69
2024/01/11 18:40:57;;;;;;;24.45;9.82;;;0.90;99.90;;;;;;10054814;28;20065;-68
2024/01/11 18:45:48;;;;;;;26.38;10.63;;;0.90;99.90;;;;;;10054829;28;20033;-74
2024/01/11 18:50:39;;;;;;;22.73;10.23;;;0.80;99.90;;;;;;10056545;28;20018;-63
2024/01/11 18:55:31;;;;;;;23.67;10.02;;;0.90;99.90;;;;;;10059128;28;20037;-68
2024/01/11 19:00:21;;;;;;;25.55;10.77;;;0.90;99.90;;;;;;10056598;28;20030;-78
2024/01/11 19:05:13;;;;;;;23.90;10.68;;;0.90;99.90;;;;;;10056699;28;20037;-73
2024/01/11 19:10:06;;;;;;;19.17;8.90;;;0.80;99.90;;;;;;10054767;28;20033;-67
2024/01/11 19:14:57;;;;;;;30.10;11.25;;;0.80;99.90;;;;;;10056525;28;20021;-72
2024/01/11 19:19:48;;;;;;;26.98;10.75;;;0.80;99.90;;;;;;10056051;28;20542;-66
2024/01/11 19:24:38;;;;;;;24.75;10.70;;;0.80;99.90;;;;;;10056066;28;20029;-67
2024/01/11 19:29:31;;;;;;;21.92;10.68;;;0.80;99.90;;;;;;10057211;28;20025;-61
2024/01/11 19:34:22;;;;;;;24.17;10.80;;;0.80;99.90;;;;;;10055832;28;20033;-67
2024/01/11 19:39:13;;;;;;;20.92;9.68;;;0.80;99.90;;;;;;10055887;28;20196;-61
2024/01/11 19:44:03;;;;;;;25.77;11.15;;;0.80;99.90;;;;;;10055359;28;20120;-62
2024/01/11 19:48:54;;;;;;;24.88;10.60;;;0.80;99.90;;;;;;10055749;28;20053;-63
2024/01/11 19:53:45;;;;;;;24.88;11.15;;;0.80;99.90;;;;;;10058076;28;20087;-63
2024/01/11 19:58:36;;;;;;;29.52;12.00;;;0.80;99.90;;;;;;10055548;28;20056;-64
2024/01/11 20:03:26;;;;;;;28.05;10.52;;;0.80;99.90;;;;;;10054466;28;20100;-63
2024/01/11 20:08:17;;;;;;;26.13;11.57;;;0.70;99.90;;;;;;10054728;28;20117;-63
2024/01/11 20:13:08;;;;;;;25.42;11.05;;;0.80;99.90;;;;;;10055275;28;20029;-61
2024/01/11 20:17:58;;;;;;;22.88;11.48;;;0.70;99.90;;;;;;10055273;28;20045;-62
2024/01/11 20:22:49;;;;;;;28.02;11.45;;;0.70;99.90;;;;;;10059125;28;20484;-65
2024/01/11 20:27:40;;;;;;;30.83;11.60;;;0.70;99.90;;;;;;10062715;28;20164;-65
2024/01/11 20:32:31;;;;;;;27.08;11.70;;;0.70;99.90;;;;;;10062178;28;20021;-68
2024/01/11 20:37:21;;;;;;;24.13;10.52;;;0.70;99.90;;;;;;10063360;28;20041;-65
2024/01/11 20:42:13;;;;;;;26.33;10.77;;;0.70;99.90;;;;;;10059988;28;20131;-64
2024/01/11 20:47:04;;;;;;;26.17;11.00;;;0.60;99.90;;;;;;10062125;28;20040;-62
2024/01/11 20:51:57;;;;;;;24.02;11.13;;;0.60;99.90;;;;;;10061708;28;20025;-72
2024/01/11 20:56:47;;;;;;;28.17;13.15;;;0.60;99.90;;;;;;10063890;28;20063;-64
2024/01/11 21:01:38;;;;;;;30.30;12.65;;;0.70;99.90;;;;;;10061120;28;20508;-66
2024/01/11 21:06:29;;;;;;;25.95;10.55;;;0.60;99.90;;;;;;10061100;28;20034;-68
2024/01/11 21:11:21;;;;;;;27.25;11.23;;;0.60;99.90;;;;;;10060956;28;20017;-66
2024/01/11 21:16:11;;;;;;;28.02;13.07;;;0.60;99.90;;;;;;10060966;28;20041;-67
2024/01/11 21:21:02;;;;;;;24.30;12.05;;;0.60;99.90;;;;;;10055000;28;20040;-73
2024/01/11 21:25:53;;;;;;;29.05;11.32;;;0.60;99.90;;;;;;10061184;28;20044;-66
2024/01/11 21:30:43;;;;;;;29.90;11.15;;;0.50;99.90;;;;;;10060339;28;20056;-63
2024/01/11 21:35:34;;;;;;;26.02;11.38;;;0.50;99.90;;;;;;10059484;28;20033;-63
2024/01/11 21:40:25;;;;;;;27.52;12.57;;;0.50;99.90;;;;;;10059495;28;20033;-62
2024/01/11 21:45:16;;;;;;;25.20;11.68;;;0.50;99.90;;;;;;10059784;28;20041;-70
2024/01/11 21:50:09;;;;;;;24.50;9.68;;;0.50;99.90;;;;;;10060294;28;20105;-68
2024/01/11 21:54:59;;;;;;;29.23;11.82;;;0.50;99.90;;;;;;10070178;28;20576;-71
2024/01/11 21:59:50;;;;;;;30.20;12.15;;;0.50;99.90;;;;;;10060004;28;20033;-70
2024/01/11 22:04:41;;;;;;;22.38;10.27;;;0.50;99.90;;;;;;10059831;28;20053;-66
2024/01/11 22:09:31;;;;;;;24.13;11.45;;;0.50;99.90;;;;;;10059379;28;20120;-65
2024/01/11 22:14:22;;;;;;;30.80;10.95;;;0.50;99.90;;;;;;10059665;28;20172;-64
2024/01/11 22:19:12;;;;;;;30.95;12.40;;;0.60;99.90;;;;;;10059030;28;20045;-74
2024/01/11 22:24:03;;;;;;;32.95;12.68;;;0.50;99.90;;;;;;10057212;28;20029;-69
2024/01/11 22:28:55;;;;;;;28.95;12.45;;;0.50;99.90;;;;;;10058535;28;20026;-67
2024/01/11 22:33:45;;;;;;;25.95;11.82;;;0.50;99.90;;;;;;10057373;28;20045;-64
2024/01/11 22:38:37;;;;;;;27.30;10.43;;;0.40;99.90;;;;;;10060882;28;20507;-74
2024/01/11 22:43:28;;;;;;;29.50;11.82;;;0.40;99.90;;;;;;10057548;28;20572;-62
2024/01/11 22:48:19;;;;;;;23.27;11.18;;;0.50;99.90;;;;;;10057386;28;20038;-65
2024/01/11 22:53:09;;;;;;;24.85;11.43;;;0.40;99.90;;;;;;10063959;28;20037;-75
2024/01/11 22:58:00;;;;;;;30.30;12.90;;;0.30;99.90;;;;;;10057828;28;20045;-70
2024/01/11 23:02:52;;;;;;;30.83;12.30;;;0.30;99.90;;;;;;10064449;28;20124;-75
2024/01/11 23:07:43;;;;;;;25.42;10.57;;;0.40;99.90;;;;;;10057142;28;20445;-63
2024/01/11 23:12:34;;;;;;;34.15;11.95;;;0.40;99.90;;;;;;10057321;28;20041;-63
2024/01/11 23:17:24;;;;;;;28.83;11.65;;;0.30;99.90;;;;;;10055998;28;20050;-68
2024/01/11 23:22:15;;;;;;;24.20;10.70;;;0.30;99.90;;;;;;10056524;28;20050;-62
2024/01/11 23:27:07;;;;;;;22.17;11.48;;;0.30;99.90;;;;;;10057313;28;20033;-69
2024/01/11 23:31:58;;;;;;;27.00;12.48;;;0.30;99.90;;;;;;10056296;28;20032;-61
2024/01/11 23:36:49;;;;;;;25.35;10.82;;;0.30;99.90;;;;;;10067222;28;20526;-61
2024/01/11 23:41:41;;;;;;;30.23;11.60;;;0.20;99.90;;;;;;10069340;28;20062;-66
2024/01/11 23:46:31;;;;;;;29.08;12.20;;;0.30;99.90;;;;;;10071184;28;20048;-63
2024/01/11 23:51:22;;;;;;;26.67;11.18;;;0.30;99.90;;;;;;10073931;28;20709;-67
2024/01/11 23:56:13;;;;;;;26.98;11.80;;;0.20;99.90;;;;;;10072411;28;20038;-63
